Flight Number: EUR1159 Duration: 1:15
Departure: Helsinki Vantaa (EFHK) at 18:30 Distance: 414 Nm
Arrival: Gdansk Zechowo (EPGD) at 19:45 Equipment: A321

Weather Information
Helsinki-Vantaa, Finland (EFHK) 60-19N 024-58E 56M Oct 19, 2018 - 01:50 PM EDT / 2018.10.19 1750 UTC
Wind: from the W (260 degrees) at 8 MPH (7 KT):0
Visibility: greater than 7 mile(s):0 Temperature: 42 F (6 C) Dew Point: 35 F (2 C) Relative Humidity: 75% Pressure (altimeter): 30.09 in. Hg (1019 hPa)
ob: EFHK 191750Z 26007KT CAVOK 06/02 Q1019 NOSIG cycle: 18
Sunrise: 05:16 Sunset: 14:53 (UTC)

Gdansk-Rebiechowo, Poland (EPGD) 54-23N 018-28E 138M Oct 19, 2018 - 01:30 PM EDT / 2018.10.19 1730 UTC
Wind: from the W (280 degrees) at 1 MPH (1 KT):0
Visibility: greater than 7 mile(s):0 Temperature: 44 F (7 C) Dew Point: 39 F (4 C) Relative Humidity: 81% Pressure (altimeter): 30.21 in. Hg (1023 hPa)
ob: EPGD 191730Z 28001KT CAVOK 07/04 Q1023 cycle: 17
Sunrise: 05:27 Sunset: 15:34 (UTC)

TAF:2018/10/19 18:33 TAF TAF EPGD 191730Z 1918/2018 VRB03KT CAVOK PROB40 2001/2007 2500 BR BECMG 2006/2008 30010KT PROB40 TEMPO 2010/2018 -SHRA BKN020TCU

Previous Pireps for this route
Date Aircraft Flight time Fuel used Landing rate On time
2012-11-30A32101.419740-401Yes
2013-08-17A32101.4611774-324No
2015-04-08A3211.1597000No
(pireps marked green are flown by you)

Route map